sensor_id;sensor_type;location;lat;lon;timestamp;P1;durP1;ratioP1;P2;durP2;ratioP2
77010;SDS011;65945;53.148;17.956;2023-05-07T00:01:26;22.40;;;11.70;;
77010;SDS011;65945;53.148;17.956;2023-05-07T00:03:53;18.60;;;12.00;;
77010;SDS011;65945;53.148;17.956;2023-05-07T00:06:19;21.20;;;10.90;;
77010;SDS011;65945;53.148;17.956;2023-05-07T00:08:46;19.60;;;11.00;;
77010;SDS011;65945;53.148;17.956;2023-05-07T00:11:13;17.10;;;11.30;;
77010;SDS011;65945;53.148;17.956;2023-05-07T00:13:39;18.90;;;12.40;;
77010;SDS011;65945;53.148;17.956;2023-05-07T00:16:06;18.90;;;11.50;;
77010;SDS011;65945;53.148;17.956;2023-05-07T00:18:32;16.10;;;10.20;;
77010;SDS011;65945;53.148;17.956;2023-05-07T00:20:59;17.50;;;10.60;;
77010;SDS011;65945;53.148;17.956;2023-05-07T00:23:25;19.40;;;11.70;;
77010;SDS011;65945;53.148;17.956;2023-05-07T00:25:52;16.00;;;10.20;;
77010;SDS011;65945;53.148;17.956;2023-05-07T00:28:19;18.90;;;12.40;;
77010;SDS011;65945;53.148;17.956;2023-05-07T00:30:45;22.20;;;12.50;;
77010;SDS011;65945;53.148;17.956;2023-05-07T00:33:12;21.10;;;13.20;;
77010;SDS011;65945;53.148;17.956;2023-05-07T00:35:38;18.90;;;12.80;;
77010;SDS011;65945;53.148;17.956;2023-05-07T00:38:05;19.30;;;12.80;;
77010;SDS011;65945;53.148;17.956;2023-05-07T00:40:32;23.00;;;12.60;;
77010;SDS011;65945;53.148;17.956;2023-05-07T00:42:58;21.60;;;12.80;;
77010;SDS011;65945;53.148;17.956;2023-05-07T00:45:26;18.80;;;12.00;;
77010;SDS011;65945;53.148;17.956;2023-05-07T00:47:54;21.40;;;13.80;;
77010;SDS011;65945;53.148;17.956;2023-05-07T00:50:22;20.90;;;13.60;;
77010;SDS011;65945;53.148;17.956;2023-05-07T00:52:48;23.40;;;11.70;;
77010;SDS011;65945;53.148;17.956;2023-05-07T00:55:15;23.40;;;12.20;;
77010;SDS011;65945;53.148;17.956;2023-05-07T00:57:42;20.20;;;12.90;;
77010;SDS011;65945;53.148;17.956;2023-05-07T01:00:09;21.40;;;12.80;;
77010;SDS011;65945;53.148;17.956;2023-05-07T01:02:36;23.50;;;14.10;;
77010;SDS011;65945;53.148;17.956;2023-05-07T01:05:04;22.60;;;14.40;;
77010;SDS011;65945;53.148;17.956;2023-05-07T01:07:33;21.50;;;13.40;;
77010;SDS011;65945;53.148;17.956;2023-05-07T01:10:01;20.20;;;12.70;;
77010;SDS011;65945;53.148;17.956;2023-05-07T01:12:30;23.40;;;12.40;;
77010;SDS011;65945;53.148;17.956;2023-05-07T01:14:57;22.10;;;11.90;;
77010;SDS011;65945;53.148;17.956;2023-05-07T01:17:24;18.90;;;10.90;;
77010;SDS011;65945;53.148;17.956;2023-05-07T01:19:52;18.50;;;11.00;;
77010;SDS011;65945;53.148;17.956;2023-05-07T01:22:28;18.90;;;11.40;;
77010;SDS011;65945;53.148;17.956;2023-05-07T01:24:58;20.50;;;11.80;;
77010;SDS011;65945;53.148;17.956;2023-05-07T01:27:27;19.00;;;11.70;;
77010;SDS011;65945;53.148;17.956;2023-05-07T01:29:54;19.30;;;11.20;;
77010;SDS011;65945;53.148;17.956;2023-05-07T01:32:56;23.30;;;12.10;;
77010;SDS011;65945;53.148;17.956;2023-05-07T01:35:24;20.40;;;12.30;;
77010;SDS011;65945;53.148;17.956;2023-05-07T01:37:53;21.60;;;13.50;;
77010;SDS011;65945;53.148;17.956;2023-05-07T01:40:20;22.80;;;13.40;;
77010;SDS011;65945;53.148;17.956;2023-05-07T01:42:48;24.00;;;14.10;;
77010;SDS011;65945;53.148;17.956;2023-05-07T01:45:14;23.90;;;15.20;;
77010;SDS011;65945;53.148;17.956;2023-05-07T01:47:41;29.20;;;16.50;;
77010;SDS011;65945;53.148;17.956;2023-05-07T01:50:09;25.30;;;15.90;;
77010;SDS011;65945;53.148;17.956;2023-05-07T01:52:37;27.90;;;18.10;;
77010;SDS011;65945;53.148;17.956;2023-05-07T01:55:05;21.50;;;13.90;;
77010;SDS011;65945;53.148;17.956;2023-05-07T01:57:33;17.40;;;10.70;;
77010;SDS011;65945;53.148;17.956;2023-05-07T01:59:59;21.80;;;14.30;;
77010;SDS011;65945;53.148;17.956;2023-05-07T02:02:26;20.40;;;11.50;;
77010;SDS011;65945;53.148;17.956;2023-05-07T02:04:54;20.30;;;12.20;;
77010;SDS011;65945;53.148;17.956;2023-05-07T02:07:22;19.00;;;10.90;;
77010;SDS011;65945;53.148;17.956;2023-05-07T02:09:49;20.60;;;10.80;;
77010;SDS011;65945;53.148;17.956;2023-05-07T02:12:15;22.00;;;11.90;;
77010;SDS011;65945;53.148;17.956;2023-05-07T02:14:42;17.50;;;11.20;;
77010;SDS011;65945;53.148;17.956;2023-05-07T02:17:09;20.70;;;11.60;;
77010;SDS011;65945;53.148;17.956;2023-05-07T02:19:36;21.00;;;12.70;;
77010;SDS011;65945;53.148;17.956;2023-05-07T02:22:03;23.10;;;12.70;;
77010;SDS011;65945;53.148;17.956;2023-05-07T02:24:30;18.40;;;10.60;;
77010;SDS011;65945;53.148;17.956;2023-05-07T02:26:57;19.80;;;12.00;;
77010;SDS011;65945;53.148;17.956;2023-05-07T02:29:24;17.90;;;11.50;;
77010;SDS011;65945;53.148;17.956;2023-05-07T02:31:52;19.30;;;11.70;;
77010;SDS011;65945;53.148;17.956;2023-05-07T02:34:19;18.90;;;12.00;;
77010;SDS011;65945;53.148;17.956;2023-05-07T02:36:46;19.00;;;12.00;;
77010;SDS011;65945;53.148;17.956;2023-05-07T02:39:14;21.60;;;13.00;;
77010;SDS011;65945;53.148;17.956;2023-05-07T02:41:42;18.00;;;11.60;;
77010;SDS011;65945;53.148;17.956;2023-05-07T02:44:08;21.10;;;12.00;;
77010;SDS011;65945;53.148;17.956;2023-05-07T02:46:35;22.00;;;12.30;;
77010;SDS011;65945;53.148;17.956;2023-05-07T02:49:06;24.40;;;13.50;;
77010;SDS011;65945;53.148;17.956;2023-05-07T02:51:33;24.90;;;14.70;;
77010;SDS011;65945;53.148;17.956;2023-05-07T02:54:02;28.70;;;17.90;;
77010;SDS011;65945;53.148;17.956;2023-05-07T02:56:29;34.20;;;20.30;;
77010;SDS011;65945;53.148;17.956;2023-05-07T02:58:56;40.00;;;24.20;;
77010;SDS011;65945;53.148;17.956;2023-05-07T03:01:24;42.20;;;26.30;;
77010;SDS011;65945;53.148;17.956;2023-05-07T03:03:57;42.30;;;24.70;;
77010;SDS011;65945;53.148;17.956;2023-05-07T03:06:23;33.20;;;19.70;;
77010;SDS011;65945;53.148;17.956;2023-05-07T03:08:51;36.40;;;21.40;;
77010;SDS011;65945;53.148;17.956;2023-05-07T03:11:17;31.10;;;19.50;;
77010;SDS011;65945;53.148;17.956;2023-05-07T03:13:44;32.50;;;19.80;;
77010;SDS011;65945;53.148;17.956;2023-05-07T03:16:10;28.20;;;16.90;;
77010;SDS011;65945;53.148;17.956;2023-05-07T03:18:37;29.90;;;16.70;;
77010;SDS011;65945;53.148;17.956;2023-05-07T03:21:04;29.20;;;17.70;;
77010;SDS011;65945;53.148;17.956;2023-05-07T03:23:30;32.00;;;18.10;;
77010;SDS011;65945;53.148;17.956;2023-05-07T03:25:57;29.10;;;17.90;;
77010;SDS011;65945;53.148;17.956;2023-05-07T03:28:24;34.10;;;21.70;;
77010;SDS011;65945;53.148;17.956;2023-05-07T03:30:54;35.70;;;21.50;;
77010;SDS011;65945;53.148;17.956;2023-05-07T03:33:21;34.70;;;20.10;;
77010;SDS011;65945;53.148;17.956;2023-05-07T03:35:49;29.40;;;18.80;;
77010;SDS011;65945;53.148;17.956;2023-05-07T03:38:19;30.30;;;18.70;;
77010;SDS011;65945;53.148;17.956;2023-05-07T03:40:46;29.90;;;16.60;;
77010;SDS011;65945;53.148;17.956;2023-05-07T03:43:13;28.20;;;18.00;;
77010;SDS011;65945;53.148;17.956;2023-05-07T03:45:42;30.00;;;18.10;;
77010;SDS011;65945;53.148;17.956;2023-05-07T03:48:29;21.20;;;13.60;;
77010;SDS011;65945;53.148;17.956;2023-05-07T03:50:57;31.80;;;15.70;;
77010;SDS011;65945;53.148;17.956;2023-05-07T03:53:25;22.10;;;14.20;;
77010;SDS011;65945;53.148;17.956;2023-05-07T03:55:51;29.70;;;15.10;;
77010;SDS011;65945;53.148;17.956;2023-05-07T03:58:18;20.80;;;12.40;;
77010;SDS011;65945;53.148;17.956;2023-05-07T04:00:46;24.60;;;13.30;;
77010;SDS011;65945;53.148;17.956;2023-05-07T04:03:20;23.80;;;13.30;;
77010;SDS011;65945;53.148;17.956;2023-05-07T04:05:46;23.80;;;14.20;;
77010;SDS011;65945;53.148;17.956;2023-05-07T04:08:13;22.50;;;13.60;;
77010;SDS011;65945;53.148;17.956;2023-05-07T04:10:42;24.80;;;14.30;;
77010;SDS011;65945;53.148;17.956;2023-05-07T04:13:10;22.90;;;13.20;;
77010;SDS011;65945;53.148;17.956;2023-05-07T04:15:37;22.40;;;13.70;;
77010;SDS011;65945;53.148;17.956;2023-05-07T04:18:05;19.40;;;12.40;;
77010;SDS011;65945;53.148;17.956;2023-05-07T04:20:33;22.00;;;12.80;;
77010;SDS011;65945;53.148;17.956;2023-05-07T04:23:02;18.00;;;10.60;;
77010;SDS011;65945;53.148;17.956;2023-05-07T04:25:29;20.90;;;10.30;;
77010;SDS011;65945;53.148;17.956;2023-05-07T04:28:02;21.00;;;11.80;;
77010;SDS011;65945;53.148;17.956;2023-05-07T04:30:29;21.30;;;11.80;;
77010;SDS011;65945;53.148;17.956;2023-05-07T04:32:57;20.90;;;12.40;;
77010;SDS011;65945;53.148;17.956;2023-05-07T04:35:23;25.10;;;14.00;;
77010;SDS011;65945;53.148;17.956;2023-05-07T04:37:50;27.60;;;15.80;;
77010;SDS011;65945;53.148;17.956;2023-05-07T04:40:17;29.40;;;17.40;;
77010;SDS011;65945;53.148;17.956;2023-05-07T04:42:44;27.70;;;16.60;;
77010;SDS011;65945;53.148;17.956;2023-05-07T04:45:12;25.60;;;15.60;;
77010;SDS011;65945;53.148;17.956;2023-05-07T04:47:39;28.70;;;16.20;;
77010;SDS011;65945;53.148;17.956;2023-05-07T04:50:06;21.90;;;13.40;;
77010;SDS011;65945;53.148;17.956;2023-05-07T04:52:35;23.70;;;14.90;;
77010;SDS011;65945;53.148;17.956;2023-05-07T04:55:03;25.40;;;13.60;;
77010;SDS011;65945;53.148;17.956;2023-05-07T04:57:34;16.90;;;10.40;;
77010;SDS011;65945;53.148;17.956;2023-05-07T05:00:01;32.00;;;15.90;;
77010;SDS011;65945;53.148;17.956;2023-05-07T05:02:30;33.00;;;18.30;;
77010;SDS011;65945;53.148;17.956;2023-05-07T05:04:57;23.90;;;13.70;;
77010;SDS011;65945;53.148;17.956;2023-05-07T05:07:25;22.60;;;12.70;;
77010;SDS011;65945;53.148;17.956;2023-05-07T05:09:52;19.40;;;12.50;;
77010;SDS011;65945;53.148;17.956;2023-05-07T05:12:19;21.00;;;12.70;;
77010;SDS011;65945;53.148;17.956;2023-05-07T05:14:46;20.60;;;13.10;;
77010;SDS011;65945;53.148;17.956;2023-05-07T05:17:13;22.00;;;12.40;;
77010;SDS011;65945;53.148;17.956;2023-05-07T05:19:40;20.40;;;11.60;;
77010;SDS011;65945;53.148;17.956;2023-05-07T05:22:07;23.30;;;12.30;;
77010;SDS011;65945;53.148;17.956;2023-05-07T05:24:34;16.10;;;10.20;;
77010;SDS011;65945;53.148;17.956;2023-05-07T05:27:01;19.70;;;11.40;;
77010;SDS011;65945;53.148;17.956;2023-05-07T05:29:29;17.20;;;10.00;;
77010;SDS011;65945;53.148;17.956;2023-05-07T05:31:58;17.00;;;11.30;;
77010;SDS011;65945;53.148;17.956;2023-05-07T05:34:24;19.40;;;11.20;;
77010;SDS011;65945;53.148;17.956;2023-05-07T05:36:51;18.00;;;10.30;;
77010;SDS011;65945;53.148;17.956;2023-05-07T05:39:18;21.10;;;11.40;;
77010;SDS011;65945;53.148;17.956;2023-05-07T05:41:45;14.90;;;9.00;;
77010;SDS011;65945;53.148;17.956;2023-05-07T05:44:12;22.20;;;12.40;;
77010;SDS011;65945;53.148;17.956;2023-05-07T05:46:39;23.70;;;12.70;;
77010;SDS011;65945;53.148;17.956;2023-05-07T05:49:06;19.80;;;11.10;;
77010;SDS011;65945;53.148;17.956;2023-05-07T05:51:33;20.30;;;11.20;;
77010;SDS011;65945;53.148;17.956;2023-05-07T05:54:00;13.80;;;8.30;;
77010;SDS011;65945;53.148;17.956;2023-05-07T05:56:26;17.90;;;10.10;;
77010;SDS011;65945;53.148;17.956;2023-05-07T05:58:53;15.40;;;10.10;;
77010;SDS011;65945;53.148;17.956;2023-05-07T06:01:20;21.30;;;10.70;;
77010;SDS011;65945;53.148;17.956;2023-05-07T06:03:47;20.40;;;10.40;;
77010;SDS011;65945;53.148;17.956;2023-05-07T06:06:14;15.00;;;7.70;;
77010;SDS011;65945;53.148;17.956;2023-05-07T06:08:42;20.00;;;9.90;;
77010;SDS011;65945;53.148;17.956;2023-05-07T06:11:09;13.60;;;8.60;;
77010;SDS011;65945;53.148;17.956;2023-05-07T06:13:38;13.50;;;8.60;;
77010;SDS011;65945;53.148;17.956;2023-05-07T06:16:04;16.30;;;8.80;;
77010;SDS011;65945;53.148;17.956;2023-05-07T06:18:32;34.10;;;17.20;;
77010;SDS011;65945;53.148;17.956;2023-05-07T06:20:59;13.20;;;7.30;;
77010;SDS011;65945;53.148;17.956;2023-05-07T06:23:28;13.50;;;8.20;;
77010;SDS011;65945;53.148;17.956;2023-05-07T06:25:55;12.70;;;8.00;;
77010;SDS011;65945;53.148;17.956;2023-05-07T06:28:24;11.20;;;6.10;;
77010;SDS011;65945;53.148;17.956;2023-05-07T06:30:52;14.00;;;7.50;;
77010;SDS011;65945;53.148;17.956;2023-05-07T06:33:18;11.60;;;7.80;;
77010;SDS011;65945;53.148;17.956;2023-05-07T06:35:46;13.10;;;6.20;;
77010;SDS011;65945;53.148;17.956;2023-05-07T06:38:13;8.00;;;5.70;;
77010;SDS011;65945;53.148;17.956;2023-05-07T06:40:41;9.10;;;5.30;;
77010;SDS011;65945;53.148;17.956;2023-05-07T06:43:08;11.30;;;6.60;;
77010;SDS011;65945;53.148;17.956;2023-05-07T06:45:47;11.40;;;6.40;;
77010;SDS011;65945;53.148;17.956;2023-05-07T06:48:13;10.30;;;5.90;;
77010;SDS011;65945;53.148;17.956;2023-05-07T06:50:55;9.90;;;6.30;;
77010;SDS011;65945;53.148;17.956;2023-05-07T06:53:24;9.70;;;5.80;;
77010;SDS011;65945;53.148;17.956;2023-05-07T06:55:53;10.50;;;5.90;;
77010;SDS011;65945;53.148;17.956;2023-05-07T06:58:20;11.10;;;5.20;;
77010;SDS011;65945;53.148;17.956;2023-05-07T07:00:48;10.70;;;5.90;;
77010;SDS011;65945;53.148;17.956;2023-05-07T07:03:15;11.40;;;6.30;;
77010;SDS011;65945;53.148;17.956;2023-05-07T07:05:42;12.60;;;6.20;;
77010;SDS011;65945;53.148;17.956;2023-05-07T07:08:09;11.20;;;5.60;;
77010;SDS011;65945;53.148;17.956;2023-05-07T07:10:36;8.80;;;5.40;;
77010;SDS011;65945;53.148;17.956;2023-05-07T07:13:03;14.10;;;6.30;;
77010;SDS011;65945;53.148;17.956;2023-05-07T07:15:30;22.90;;;7.10;;
77010;SDS011;65945;53.148;17.956;2023-05-07T07:17:57;10.80;;;5.70;;
77010;SDS011;65945;53.148;17.956;2023-05-07T07:20:24;13.00;;;5.30;;
77010;SDS011;65945;53.148;17.956;2023-05-07T07:22:51;9.00;;;5.10;;
77010;SDS011;65945;53.148;17.956;2023-05-07T07:25:18;10.50;;;6.10;;
77010;SDS011;65945;53.148;17.956;2023-05-07T07:27:45;8.60;;;4.70;;
77010;SDS011;65945;53.148;17.956;2023-05-07T07:30:12;11.70;;;5.70;;
77010;SDS011;65945;53.148;17.956;2023-05-07T07:32:40;11.00;;;6.20;;
77010;SDS011;65945;53.148;17.956;2023-05-07T07:35:07;11.10;;;5.80;;
77010;SDS011;65945;53.148;17.956;2023-05-07T07:37:34;6.50;;;3.40;;
77010;SDS011;65945;53.148;17.956;2023-05-07T07:40:01;10.10;;;5.10;;
77010;SDS011;65945;53.148;17.956;2023-05-07T07:42:29;8.80;;;5.10;;
77010;SDS011;65945;53.148;17.956;2023-05-07T07:44:56;9.30;;;4.90;;
77010;SDS011;65945;53.148;17.956;2023-05-07T07:47:23;9.60;;;4.80;;
77010;SDS011;65945;53.148;17.956;2023-05-07T07:49:50;12.80;;;6.20;;
77010;SDS011;65945;53.148;17.956;2023-05-07T07:52:18;8.20;;;4.80;;
77010;SDS011;65945;53.148;17.956;2023-05-07T07:54:45;10.80;;;4.30;;
77010;SDS011;65945;53.148;17.956;2023-05-07T07:57:12;8.00;;;4.50;;
77010;SDS011;65945;53.148;17.956;2023-05-07T07:59:39;5.90;;;3.30;;
77010;SDS011;65945;53.148;17.956;2023-05-07T08:02:06;5.30;;;2.50;;
77010;SDS011;65945;53.148;17.956;2023-05-07T08:04:33;5.70;;;2.70;;
77010;SDS011;65945;53.148;17.956;2023-05-07T08:07:03;4.70;;;2.50;;
77010;SDS011;65945;53.148;17.956;2023-05-07T08:09:30;5.90;;;2.70;;
77010;SDS011;65945;53.148;17.956;2023-05-07T08:11:58;5.30;;;2.80;;
77010;SDS011;65945;53.148;17.956;2023-05-07T08:14:25;6.30;;;3.00;;
77010;SDS011;65945;53.148;17.956;2023-05-07T08:16:52;6.20;;;3.20;;
77010;SDS011;65945;53.148;17.956;2023-05-07T08:19:19;5.60;;;2.70;;
77010;SDS011;65945;53.148;17.956;2023-05-07T08:21:46;8.50;;;2.70;;
77010;SDS011;65945;53.148;17.956;2023-05-07T08:24:17;6.10;;;3.30;;
77010;SDS011;65945;53.148;17.956;2023-05-07T08:26:45;5.80;;;2.90;;
77010;SDS011;65945;53.148;17.956;2023-05-07T08:29:12;5.80;;;2.70;;
77010;SDS011;65945;53.148;17.956;2023-05-07T08:31:39;5.30;;;2.70;;
77010;SDS011;65945;53.148;17.956;2023-05-07T08:34:06;4.80;;;2.90;;
77010;SDS011;65945;53.148;17.956;2023-05-07T08:36:34;7.00;;;3.30;;
77010;SDS011;65945;53.148;17.956;2023-05-07T08:39:00;5.90;;;3.00;;
77010;SDS011;65945;53.148;17.956;2023-05-07T08:41:27;9.90;;;3.20;;
77010;SDS011;65945;53.148;17.956;2023-05-07T08:43:54;5.20;;;2.40;;
77010;SDS011;65945;53.148;17.956;2023-05-07T08:46:25;4.20;;;1.90;;
77010;SDS011;65945;53.148;17.956;2023-05-07T08:48:55;6.00;;;2.10;;
77010;SDS011;65945;53.148;17.956;2023-05-07T08:51:21;3.40;;;2.30;;
77010;SDS011;65945;53.148;17.956;2023-05-07T08:53:49;5.70;;;2.30;;
77010;SDS011;65945;53.148;17.956;2023-05-07T08:56:21;5.30;;;2.00;;
77010;SDS011;65945;53.148;17.956;2023-05-07T08:58:48;4.10;;;1.90;;
77010;SDS011;65945;53.148;17.956;2023-05-07T09:01:16;5.30;;;2.10;;
77010;SDS011;65945;53.148;17.956;2023-05-07T09:03:45;4.90;;;2.30;;
77010;SDS011;65945;53.148;17.956;2023-05-07T09:06:13;3.70;;;1.80;;
77010;SDS011;65945;53.148;17.956;2023-05-07T09:08:44;7.60;;;2.10;;
77010;SDS011;65945;53.148;17.956;2023-05-07T09:11:19;5.40;;;2.30;;
77010;SDS011;65945;53.148;17.956;2023-05-07T09:13:47;4.40;;;2.10;;
77010;SDS011;65945;53.148;17.956;2023-05-07T09:16:15;9.20;;;2.20;;
77010;SDS011;65945;53.148;17.956;2023-05-07T09:18:44;4.60;;;2.40;;
77010;SDS011;65945;53.148;17.956;2023-05-07T09:21:15;5.20;;;1.90;;
77010;SDS011;65945;53.148;17.956;2023-05-07T09:23:42;4.00;;;1.90;;
77010;SDS011;65945;53.148;17.956;2023-05-07T09:26:09;5.80;;;2.60;;
77010;SDS011;65945;53.148;17.956;2023-05-07T09:28:39;5.60;;;2.40;;
77010;SDS011;65945;53.148;17.956;2023-05-07T09:31:08;4.70;;;2.40;;
77010;SDS011;65945;53.148;17.956;2023-05-07T09:33:36;3.20;;;1.90;;
77010;SDS011;65945;53.148;17.956;2023-05-07T09:36:07;6.70;;;2.00;;
77010;SDS011;65945;53.148;17.956;2023-05-07T09:38:36;3.50;;;2.00;;
77010;SDS011;65945;53.148;17.956;2023-05-07T09:41:08;4.80;;;1.70;;
77010;SDS011;65945;53.148;17.956;2023-05-07T09:43:42;4.60;;;2.60;;
77010;SDS011;65945;53.148;17.956;2023-05-07T09:46:13;5.80;;;3.00;;
77010;SDS011;65945;53.148;17.956;2023-05-07T09:48:42;5.20;;;1.70;;
77010;SDS011;65945;53.148;17.956;2023-05-07T09:53:44;5.20;;;2.50;;
77010;SDS011;65945;53.148;17.956;2023-05-07T09:56:13;3.90;;;1.80;;
77010;SDS011;65945;53.148;17.956;2023-05-07T09:58:43;2.60;;;1.60;;
77010;SDS011;65945;53.148;17.956;2023-05-07T10:01:12;5.40;;;2.00;;
77010;SDS011;65945;53.148;17.956;2023-05-07T10:03:40;3.90;;;2.20;;
77010;SDS011;65945;53.148;17.956;2023-05-07T10:06:09;3.60;;;2.20;;
77010;SDS011;65945;53.148;17.956;2023-05-07T10:08:37;4.00;;;2.10;;
77010;SDS011;65945;53.148;17.956;2023-05-07T10:11:04;3.00;;;1.70;;
77010;SDS011;65945;53.148;17.956;2023-05-07T10:13:33;7.00;;;3.20;;
77010;SDS011;65945;53.148;17.956;2023-05-07T10:16:05;4.90;;;2.40;;
77010;SDS011;65945;53.148;17.956;2023-05-07T10:18:36;6.90;;;2.30;;
77010;SDS011;65945;53.148;17.956;2023-05-07T10:21:11;7.00;;;2.60;;
77010;SDS011;65945;53.148;17.956;2023-05-07T10:23:45;3.70;;;2.30;;
77010;SDS011;65945;53.148;17.956;2023-05-07T10:26:20;6.10;;;2.70;;
77010;SDS011;65945;53.148;17.956;2023-05-07T10:28:51;5.30;;;2.60;;
77010;SDS011;65945;53.148;17.956;2023-05-07T10:34:21;6.30;;;2.70;;
77010;SDS011;65945;53.148;17.956;2023-05-07T10:36:52;6.10;;;2.30;;
77010;SDS011;65945;53.148;17.956;2023-05-07T10:39:21;6.70;;;2.60;;
77010;SDS011;65945;53.148;17.956;2023-05-07T10:41:49;4.60;;;2.20;;
77010;SDS011;65945;53.148;17.956;2023-05-07T10:44:34;4.60;;;2.40;;
77010;SDS011;65945;53.148;17.956;2023-05-07T10:47:09;2.90;;;2.00;;
77010;SDS011;65945;53.148;17.956;2023-05-07T10:52:22;6.10;;;3.10;;
77010;SDS011;65945;53.148;17.956;2023-05-07T11:01:00;6.90;;;2.60;;
77010;SDS011;65945;53.148;17.956;2023-05-07T11:03:32;4.00;;;2.40;;
77010;SDS011;65945;53.148;17.956;2023-05-07T11:09:02;6.20;;;2.90;;
77010;SDS011;65945;53.148;17.956;2023-05-07T11:11:56;5.50;;;2.40;;
77010;SDS011;65945;53.148;17.956;2023-05-07T11:17:33;6.30;;;2.60;;
77010;SDS011;65945;53.148;17.956;2023-05-07T11:20:05;4.90;;;2.50;;
77010;SDS011;65945;53.148;17.956;2023-05-07T11:22:42;4.60;;;2.60;;
77010;SDS011;65945;53.148;17.956;2023-05-07T11:25:25;4.70;;;2.30;;
77010;SDS011;65945;53.148;17.956;2023-05-07T11:28:03;4.40;;;2.40;;
77010;SDS011;65945;53.148;17.956;2023-05-07T11:30:31;4.40;;;2.10;;
77010;SDS011;65945;53.148;17.956;2023-05-07T11:32:59;4.60;;;2.20;;
77010;SDS011;65945;53.148;17.956;2023-05-07T11:35:25;6.50;;;2.80;;
77010;SDS011;65945;53.148;17.956;2023-05-07T11:37:57;4.50;;;2.40;;
77010;SDS011;65945;53.148;17.956;2023-05-07T11:40:26;4.60;;;2.00;;
77010;SDS011;65945;53.148;17.956;2023-05-07T11:42:54;3.70;;;2.30;;
77010;SDS011;65945;53.148;17.956;2023-05-07T11:45:24;4.90;;;1.90;;
77010;SDS011;65945;53.148;17.956;2023-05-07T11:47:51;4.30;;;2.40;;
77010;SDS011;65945;53.148;17.956;2023-05-07T11:50:18;6.80;;;2.40;;
77010;SDS011;65945;53.148;17.956;2023-05-07T11:52:51;4.80;;;2.60;;
77010;SDS011;65945;53.148;17.956;2023-05-07T11:55:20;5.40;;;2.70;;
77010;SDS011;65945;53.148;17.956;2023-05-07T11:57:48;3.60;;;2.10;;
77010;SDS011;65945;53.148;17.956;2023-05-07T12:00:15;4.30;;;2.10;;
77010;SDS011;65945;53.148;17.956;2023-05-07T12:02:43;3.20;;;1.80;;
77010;SDS011;65945;53.148;17.956;2023-05-07T12:05:11;3.20;;;2.10;;
77010;SDS011;65945;53.148;17.956;2023-05-07T12:07:38;7.10;;;3.70;;
77010;SDS011;65945;53.148;17.956;2023-05-07T12:10:05;4.90;;;2.20;;
77010;SDS011;65945;53.148;17.956;2023-05-07T12:12:45;4.20;;;2.00;;
77010;SDS011;65945;53.148;17.956;2023-05-07T12:15:15;3.40;;;2.00;;
77010;SDS011;65945;53.148;17.956;2023-05-07T12:17:42;4.00;;;2.40;;
77010;SDS011;65945;53.148;17.956;2023-05-07T12:20:11;3.80;;;2.40;;
77010;SDS011;65945;53.148;17.956;2023-05-07T12:22:38;5.30;;;2.10;;
77010;SDS011;65945;53.148;17.956;2023-05-07T12:25:05;5.90;;;2.60;;
77010;SDS011;65945;53.148;17.956;2023-05-07T12:27:32;8.10;;;2.40;;
77010;SDS011;65945;53.148;17.956;2023-05-07T12:30:04;5.70;;;2.30;;
77010;SDS011;65945;53.148;17.956;2023-05-07T12:32:32;3.00;;;2.10;;
77010;SDS011;65945;53.148;17.956;2023-05-07T12:35:02;3.40;;;2.10;;
77010;SDS011;65945;53.148;17.956;2023-05-07T12:37:32;3.20;;;2.10;;
77010;SDS011;65945;53.148;17.956;2023-05-07T12:42:35;5.10;;;2.30;;
77010;SDS011;65945;53.148;17.956;2023-05-07T12:45:12;4.60;;;1.80;;
77010;SDS011;65945;53.148;17.956;2023-05-07T12:47:45;5.30;;;2.70;;
77010;SDS011;65945;53.148;17.956;2023-05-07T12:50:13;4.00;;;2.50;;
77010;SDS011;65945;53.148;17.956;2023-05-07T12:52:40;3.80;;;2.50;;
77010;SDS011;65945;53.148;17.956;2023-05-07T12:55:07;7.50;;;2.90;;
77010;SDS011;65945;53.148;17.956;2023-05-07T12:57:39;4.10;;;2.00;;
77010;SDS011;65945;53.148;17.956;2023-05-07T13:00:10;4.40;;;2.20;;
77010;SDS011;65945;53.148;17.956;2023-05-07T13:02:38;3.70;;;1.90;;
77010;SDS011;65945;53.148;17.956;2023-05-07T13:05:05;4.70;;;2.40;;
77010;SDS011;65945;53.148;17.956;2023-05-07T13:07:33;6.10;;;2.50;;
77010;SDS011;65945;53.148;17.956;2023-05-07T13:10:00;7.50;;;2.30;;
77010;SDS011;65945;53.148;17.956;2023-05-07T13:12:27;4.40;;;2.60;;
77010;SDS011;65945;53.148;17.956;2023-05-07T13:14:54;6.50;;;2.40;;
77010;SDS011;65945;53.148;17.956;2023-05-07T13:17:21;6.00;;;2.90;;
77010;SDS011;65945;53.148;17.956;2023-05-07T13:19:47;8.00;;;3.60;;
77010;SDS011;65945;53.148;17.956;2023-05-07T13:22:14;4.60;;;1.80;;
77010;SDS011;65945;53.148;17.956;2023-05-07T13:24:41;3.80;;;2.00;;
77010;SDS011;65945;53.148;17.956;2023-05-07T13:27:09;3.70;;;2.00;;
77010;SDS011;65945;53.148;17.956;2023-05-07T13:29:35;3.50;;;1.80;;
77010;SDS011;65945;53.148;17.956;2023-05-07T13:32:02;5.80;;;2.10;;
77010;SDS011;65945;53.148;17.956;2023-05-07T13:34:29;4.70;;;2.00;;
77010;SDS011;65945;53.148;17.956;2023-05-07T13:36:56;4.20;;;1.70;;
77010;SDS011;65945;53.148;17.956;2023-05-07T13:39:22;4.40;;;2.20;;
77010;SDS011;65945;53.148;17.956;2023-05-07T13:41:49;4.80;;;2.30;;
77010;SDS011;65945;53.148;17.956;2023-05-07T13:44:16;2.50;;;1.90;;
77010;SDS011;65945;53.148;17.956;2023-05-07T13:46:42;3.70;;;1.90;;
77010;SDS011;65945;53.148;17.956;2023-05-07T13:49:09;3.70;;;1.80;;
77010;SDS011;65945;53.148;17.956;2023-05-07T13:51:37;5.20;;;2.00;;
77010;SDS011;65945;53.148;17.956;2023-05-07T13:54:04;4.90;;;1.80;;
77010;SDS011;65945;53.148;17.956;2023-05-07T13:56:30;3.30;;;2.10;;
77010;SDS011;65945;53.148;17.956;2023-05-07T13:58:58;3.00;;;1.90;;
77010;SDS011;65945;53.148;17.956;2023-05-07T14:01:25;4.00;;;1.90;;
77010;SDS011;65945;53.148;17.956;2023-05-07T14:03:52;2.90;;;1.90;;
77010;SDS011;65945;53.148;17.956;2023-05-07T14:06:18;3.60;;;2.20;;
77010;SDS011;65945;53.148;17.956;2023-05-07T14:08:45;6.20;;;2.20;;
77010;SDS011;65945;53.148;17.956;2023-05-07T14:11:11;3.20;;;1.80;;
77010;SDS011;65945;53.148;17.956;2023-05-07T14:13:38;8.50;;;3.20;;
77010;SDS011;65945;53.148;17.956;2023-05-07T14:16:05;6.00;;;2.80;;
77010;SDS011;65945;53.148;17.956;2023-05-07T14:18:31;4.40;;;2.00;;
77010;SDS011;65945;53.148;17.956;2023-05-07T14:21:00;4.40;;;1.70;;
77010;SDS011;65945;53.148;17.956;2023-05-07T14:23:26;3.70;;;1.70;;
77010;SDS011;65945;53.148;17.956;2023-05-07T14:25:53;3.30;;;1.70;;
77010;SDS011;65945;53.148;17.956;2023-05-07T14:28:20;7.60;;;3.90;;
77010;SDS011;65945;53.148;17.956;2023-05-07T14:30:46;8.70;;;4.60;;
77010;SDS011;65945;53.148;17.956;2023-05-07T14:33:13;7.30;;;3.20;;
77010;SDS011;65945;53.148;17.956;2023-05-07T14:35:40;4.30;;;2.00;;
77010;SDS011;65945;53.148;17.956;2023-05-07T14:38:06;6.20;;;3.00;;
77010;SDS011;65945;53.148;17.956;2023-05-07T14:40:34;3.70;;;1.80;;
77010;SDS011;65945;53.148;17.956;2023-05-07T14:43:00;4.50;;;1.90;;
77010;SDS011;65945;53.148;17.956;2023-05-07T14:45:27;5.40;;;2.60;;
77010;SDS011;65945;53.148;17.956;2023-05-07T14:47:53;8.30;;;2.10;;
77010;SDS011;65945;53.148;17.956;2023-05-07T14:50:20;5.00;;;2.40;;
77010;SDS011;65945;53.148;17.956;2023-05-07T14:52:47;5.80;;;1.90;;